Time;durP1;ratioP1;P1;durP2;ratioP2;P2;SDS_P1;SDS_P2;PMS_P1;PMS_P2;Temp;Humidity;BMP_temperature;BMP_pressure;BME280_temperature;BME280_humidity;BME280_pressure;Samples;Min_cycle;Max_cycle;Signal;HPM_P1;HPM_P2
2023/12/29 00:02:24;;;;;;;5.70;0.40;;;;;;;;;;5261753;28;20392;-82
2023/12/29 00:04:56;;;;;;;3.63;0.30;;;;;;;;;;5261572;28;20013;-82
2023/12/29 00:07:27;;;;;;;5.32;0.50;;;;;;;;;;5261697;28;20025;-82
2023/12/29 00:09:58;;;;;;;3.15;0.45;;;;;;;;;;5261920;28;20025;-82
2023/12/29 00:12:29;;;;;;;8.02;0.68;;;;;;;;;;5261021;28;20021;-81
2023/12/29 00:15:00;;;;;;;8.70;0.60;;;;;;;;;;5261716;28;20017;-83
2023/12/29 00:17:32;;;;;;;6.45;0.70;;;;;;;;;;5261472;28;20027;-82
2023/12/29 00:20:04;;;;;;;6.22;0.60;;;;;;;;;;5260274;28;20021;-82
2023/12/29 00:22:35;;;;;;;6.40;0.50;;;;;;;;;;5261514;28;20465;-81
2023/12/29 00:25:08;;;;;;;4.60;0.43;;;;;;;;;;5261552;28;20024;-81
2023/12/29 00:27:39;;;;;;;5.65;0.60;;;;;;;;;;5260586;28;20036;-81
2023/12/29 00:30:11;;;;;;;5.43;0.80;;;;;;;;;;5261080;28;20036;-82
2023/12/29 00:32:42;;;;;;;5.97;0.80;;;;;;;;;;5261036;28;20028;-81
2023/12/29 00:35:13;;;;;;;4.93;0.40;;;;;;;;;;5260603;28;20498;-82
2023/12/29 00:37:44;;;;;;;4.25;0.50;;;;;;;;;;5261303;28;20068;-82
2023/12/29 00:40:15;;;;;;;5.53;0.50;;;;;;;;;;5260584;28;20051;-82
2023/12/29 00:42:47;;;;;;;6.63;0.50;;;;;;;;;;5260971;28;20037;-82
2023/12/29 00:45:18;;;;;;;4.57;0.43;;;;;;;;;;5261067;28;20195;-82
2023/12/29 00:47:50;;;;;;;3.85;0.50;;;;;;;;;;5260042;28;20468;-82
2023/12/29 00:50:22;;;;;;;7.97;0.70;;;;;;;;;;5260980;28;20025;-82
2023/12/29 00:52:53;;;;;;;6.95;0.50;;;;;;;;;;5261691;28;20432;-81
2023/12/29 00:55:24;;;;;;;5.70;0.75;;;;;;;;;;5259996;28;20017;-82
2023/12/29 00:57:55;;;;;;;7.90;0.77;;;;;;;;;;5261772;28;20032;-81
2023/12/29 01:00:26;;;;;;;7.97;0.90;;;;;;;;;;5260936;28;20025;-81
2023/12/29 01:02:57;;;;;;;9.57;0.80;;;;;;;;;;5260207;28;20067;-82
2023/12/29 01:05:29;;;;;;;6.18;0.50;;;;;;;;;;5259887;28;20480;-82
2023/12/29 01:08:00;;;;;;;5.90;0.80;;;;;;;;;;5260632;28;20029;-82
2023/12/29 01:10:31;;;;;;;5.53;0.60;;;;;;;;;;5260134;28;20017;-81
2023/12/29 01:13:03;;;;;;;6.97;0.60;;;;;;;;;;5260743;28;20036;-81
2023/12/29 01:15:34;;;;;;;10.27;1.17;;;;;;;;;;5259747;28;20021;-81
2023/12/29 01:18:05;;;;;;;4.85;0.52;;;;;;;;;;5260839;28;20024;-81
2023/12/29 01:20:36;;;;;;;4.55;0.50;;;;;;;;;;5260514;28;20021;-81
2023/12/29 01:23:08;;;;;;;10.52;0.98;;;;;;;;;;5260067;28;20426;-79
2023/12/29 01:25:39;;;;;;;4.57;0.45;;;;;;;;;;5260912;28;20435;-80
2023/12/29 01:28:10;;;;;;;4.95;0.50;;;;;;;;;;5260772;28;20194;-80
2023/12/29 01:30:41;;;;;;;5.65;0.60;;;;;;;;;;5259615;28;20021;-80
2023/12/29 01:33:12;;;;;;;5.13;0.65;;;;;;;;;;5260396;28;20050;-79
2023/12/29 01:35:44;;;;;;;9.15;1.00;;;;;;;;;;5260510;28;20021;-79
2023/12/29 01:38:16;;;;;;;6.28;0.80;;;;;;;;;;5259675;28;20530;-79
2023/12/29 01:40:47;;;;;;;5.32;0.50;;;;;;;;;;5260477;28;20111;-80
2023/12/29 01:43:18;;;;;;;6.18;0.60;;;;;;;;;;5259600;28;20468;-81
2023/12/29 01:45:49;;;;;;;5.65;0.55;;;;;;;;;;5260351;28;20021;-81
2023/12/29 01:48:22;;;;;;;4.40;0.48;;;;;;;;;;5260057;28;20118;-81
2023/12/29 01:50:53;;;;;;;6.15;0.60;;;;;;;;;;5259635;28;20024;-81
2023/12/29 01:53:25;;;;;;;5.00;0.85;;;;;;;;;;5259891;28;20380;-81
2023/12/29 01:55:56;;;;;;;7.47;0.82;;;;;;;;;;5260423;28;20021;-83
2023/12/29 01:58:27;;;;;;;3.40;0.50;;;;;;;;;;5259804;28;20021;-82
2023/12/29 02:01:00;;;;;;;5.50;0.47;;;;;;;;;;5260553;28;20125;-82
2023/12/29 02:03:31;;;;;;;6.13;0.50;;;;;;;;;;5260441;28;20054;-81
2023/12/29 02:06:03;;;;;;;6.05;0.70;;;;;;;;;;5259356;28;20029;-81
2023/12/29 02:08:34;;;;;;;7.97;0.52;;;;;;;;;;5260025;28;20380;-82
2023/12/29 02:11:05;;;;;;;9.18;0.60;;;;;;;;;;5260377;28;20472;-81
2023/12/29 02:13:36;;;;;;;8.02;0.70;;;;;;;;;;5259460;28;20383;-81
2023/12/29 02:16:31;;;;;;;6.97;0.70;;;;;;;;;;5261946;28;20017;-82
2023/12/29 02:19:08;;;;;;;5.45;0.50;;;;;;;;;;5260115;28;20118;-81
2023/12/29 02:21:39;;;;;;;7.50;0.68;;;;;;;;;;5263911;28;20025;-82
2023/12/29 02:24:10;;;;;;;6.63;0.60;;;;;;;;;;5263851;28;20526;-80
2023/12/29 02:26:44;;;;;;;7.32;0.50;;;;;;;;;;5262671;28;20383;-81
2023/12/29 02:29:19;;;;;;;7.05;0.75;;;;;;;;;;5263355;28;20041;-79
2023/12/29 02:31:52;;;;;;;5.60;0.40;;;;;;;;;;5263333;28;20472;-82
2023/12/29 02:34:24;;;;;;;5.18;0.40;;;;;;;;;;5263199;28;20013;-82
2023/12/29 02:36:56;;;;;;;3.25;0.40;;;;;;;;;;5264146;28;20043;-82
2023/12/29 02:39:27;;;;;;;7.97;0.60;;;;;;;;;;5263987;28;20099;-82
2023/12/29 02:41:58;;;;;;;5.57;0.68;;;;;;;;;;5268377;28;20052;-83
2023/12/29 02:44:30;;;;;;;8.65;1.05;;;;;;;;;;5275010;28;20029;-82
2023/12/29 02:47:03;;;;;;;4.95;0.50;;;;;;;;;;5273444;28;20021;-82
2023/12/29 02:49:35;;;;;;;5.63;0.68;;;;;;;;;;5269541;28;20044;-82
2023/12/29 02:52:06;;;;;;;6.20;0.68;;;;;;;;;;5274917;28;20017;-82
2023/12/29 02:54:37;;;;;;;6.22;0.85;;;;;;;;;;5272992;28;20029;-82
2023/12/29 02:57:08;;;;;;;4.18;0.50;;;;;;;;;;5273028;28;20031;-82
2023/12/29 02:59:39;;;;;;;7.45;0.65;;;;;;;;;;5268455;28;20021;-80
2023/12/29 03:02:11;;;;;;;5.55;0.52;;;;;;;;;;5272587;28;20019;-82
2023/12/29 03:04:42;;;;;;;5.35;0.43;;;;;;;;;;5272221;28;20076;-81
2023/12/29 03:07:13;;;;;;;8.25;0.73;;;;;;;;;;5270300;28;20055;-81
2023/12/29 03:09:44;;;;;;;5.50;0.60;;;;;;;;;;5269403;28;20028;-81
2023/12/29 03:12:15;;;;;;;5.57;0.40;;;;;;;;;;5269999;28;20033;-80
2023/12/29 03:14:47;;;;;;;8.30;0.60;;;;;;;;;;5264990;28;20021;-80
2023/12/29 03:17:18;;;;;;;4.18;0.40;;;;;;;;;;5263188;28;20017;-81
2023/12/29 03:19:49;;;;;;;7.10;0.77;;;;;;;;;;5262782;28;20017;-81
2023/12/29 03:22:21;;;;;;;4.18;0.43;;;;;;;;;;5261649;28;20457;-82
2023/12/29 03:24:52;;;;;;;6.13;0.73;;;;;;;;;;5262985;28;20025;-81
2023/12/29 03:27:23;;;;;;;5.75;0.52;;;;;;;;;;5261246;28;20029;-82
2023/12/29 03:29:54;;;;;;;5.95;0.80;;;;;;;;;;5261884;28;20135;-82
2023/12/29 03:32:25;;;;;;;7.38;0.50;;;;;;;;;;5262421;28;20479;-82
2023/12/29 03:34:57;;;;;;;6.18;0.40;;;;;;;;;;5262490;28;20027;-83
2023/12/29 03:37:28;;;;;;;6.40;0.50;;;;;;;;;;5261617;28;20357;-82
2023/12/29 03:39:59;;;;;;;7.32;0.50;;;;;;;;;;5262041;28;20016;-82
2023/12/29 03:42:30;;;;;;;4.93;0.50;;;;;;;;;;5262477;28;20067;-82
2023/12/29 03:45:01;;;;;;;7.10;0.50;;;;;;;;;;5261838;28;20036;-82
2023/12/29 03:47:32;;;;;;;3.35;0.50;;;;;;;;;;5262054;28;20021;-81
2023/12/29 03:50:04;;;;;;;7.00;0.60;;;;;;;;;;5261017;28;20450;-82
2023/12/29 03:52:35;;;;;;;6.28;0.63;;;;;;;;;;5261894;28;20037;-82
2023/12/29 03:55:06;;;;;;;9.95;0.75;;;;;;;;;;5262318;28;20078;-82
2023/12/29 03:57:37;;;;;;;5.22;0.40;;;;;;;;;;5261168;28;20017;-82
2023/12/29 04:00:12;;;;;;;5.70;0.50;;;;;;;;;;5262053;28;20103;-82
2023/12/29 04:02:44;;;;;;;7.40;0.60;;;;;;;;;;5262337;28;20019;-82
2023/12/29 04:05:15;;;;;;;6.72;0.47;;;;;;;;;;5261298;28;20476;-82
2023/12/29 04:07:46;;;;;;;7.78;0.90;;;;;;;;;;5261719;28;20040;-82
2023/12/29 04:10:17;;;;;;;3.55;0.38;;;;;;;;;;5261308;28;20013;-82
2023/12/29 04:12:48;;;;;;;7.70;0.60;;;;;;;;;;5260715;28;20020;-82
2023/12/29 04:15:19;;;;;;;7.30;0.70;;;;;;;;;;5261440;28;20029;-82
2023/12/29 04:17:51;;;;;;;4.07;0.47;;;;;;;;;;5261275;28;20074;-82
2023/12/29 04:20:22;;;;;;;5.05;0.40;;;;;;;;;;5260358;28;20108;-82
2023/12/29 04:22:55;;;;;;;6.00;0.68;;;;;;;;;;5261658;28;20017;-82
2023/12/29 04:25:26;;;;;;;7.78;0.80;;;;;;;;;;5260583;28;20041;-82
2023/12/29 04:27:57;;;;;;;3.58;0.50;;;;;;;;;;5261096;28;20550;-82
2023/12/29 04:30:28;;;;;;;3.20;0.55;;;;;;;;;;5261578;28;20047;-81
2023/12/29 04:32:59;;;;;;;5.68;1.13;;;;;;;;;;5260498;28;20086;-82
2023/12/29 04:35:30;;;;;;;9.23;0.60;;;;;;;;;;5261139;28;20051;-82
2023/12/29 04:38:02;;;;;;;4.93;0.90;;;;;;;;;;5261102;28;20021;-82
2023/12/29 04:40:33;;;;;;;7.22;0.75;;;;;;;;;;5259845;28;20109;-82
2023/12/29 04:43:04;;;;;;;7.85;0.80;;;;;;;;;;5261429;28;20100;-82
2023/12/29 04:45:35;;;;;;;6.53;0.50;;;;;;;;;;5261137;28;20016;-82
2023/12/29 04:48:06;;;;;;;5.15;0.50;;;;;;;;;;5260411;28;20460;-83
2023/12/29 04:50:38;;;;;;;6.93;0.70;;;;;;;;;;5260797;28;20025;-82
2023/12/29 04:53:09;;;;;;;9.10;1.25;;;;;;;;;;5260766;28;20452;-82
2023/12/29 04:55:40;;;;;;;5.68;0.98;;;;;;;;;;5260239;28;20879;-83
2023/12/29 04:58:11;;;;;;;6.20;0.82;;;;;;;;;;5261177;28;20032;-83
2023/12/29 05:00:42;;;;;;;8.38;0.73;;;;;;;;;;5260028;28;20108;-82
2023/12/29 05:03:13;;;;;;;8.23;1.30;;;;;;;;;;5260319;28;20017;-82
2023/12/29 05:05:45;;;;;;;6.70;0.82;;;;;;;;;;5260484;28;20017;-82
2023/12/29 05:08:16;;;;;;;6.00;0.52;;;;;;;;;;5259942;28;20036;-82
2023/12/29 05:10:47;;;;;;;6.65;1.48;;;;;;;;;;5260708;28;20014;-82
2023/12/29 05:13:18;;;;;;;8.35;0.50;;;;;;;;;;5260715;28;20016;-82
2023/12/29 05:15:50;;;;;;;6.57;0.52;;;;;;;;;;5259884;28;20025;-82
2023/12/29 05:18:21;;;;;;;11.45;0.82;;;;;;;;;;5260510;28;20020;-82
2023/12/29 05:20:53;;;;;;;6.70;0.88;;;;;;;;;;5261092;28;20147;-82
2023/12/29 05:23:24;;;;;;;5.18;0.60;;;;;;;;;;5259529;28;20061;-82
2023/12/29 05:25:55;;;;;;;8.00;0.80;;;;;;;;;;5260674;28;20100;-83
2023/12/29 05:28:27;;;;;;;7.20;0.98;;;;;;;;;;5259289;28;20053;-82
2023/12/29 05:31:03;;;;;;;8.65;0.75;;;;;;;;;;5260583;28;20478;-83
2023/12/29 05:33:34;;;;;;;7.65;0.68;;;;;;;;;;5260482;28;20483;-82
2023/12/29 05:36:07;;;;;;;7.00;0.50;;;;;;;;;;5259220;28;20043;-82
2023/12/29 05:38:39;;;;;;;9.25;1.38;;;;;;;;;;5260325;28;20025;-82
2023/12/29 05:41:12;;;;;;;7.45;0.80;;;;;;;;;;5260722;28;20399;-82
2023/12/29 05:43:43;;;;;;;5.97;1.10;;;;;;;;;;5259932;28;20468;-82
2023/12/29 05:46:15;;;;;;;6.22;1.00;;;;;;;;;;5260418;28;20020;-82
2023/12/29 05:48:46;;;;;;;6.80;0.60;;;;;;;;;;5260203;28;20028;-82
2023/12/29 05:51:17;;;;;;;5.18;0.40;;;;;;;;;;5261584;28;20473;-83
2023/12/29 05:53:48;;;;;;;4.05;0.47;;;;;;;;;;5264821;28;20025;-82
2023/12/29 05:56:20;;;;;;;4.25;0.52;;;;;;;;;;5264552;28;20049;-83
2023/12/29 05:58:51;;;;;;;5.43;0.50;;;;;;;;;;5264003;28;20491;-83
2023/12/29 06:01:22;;;;;;;3.78;0.60;;;;;;;;;;5264301;28;20040;-82
2023/12/29 06:03:53;;;;;;;5.07;0.43;;;;;;;;;;5263755;28;20025;-82
2023/12/29 06:06:25;;;;;;;6.97;0.90;;;;;;;;;;5263855;28;20017;-83
2023/12/29 06:08:56;;;;;;;6.47;0.43;;;;;;;;;;5263983;28;20036;-82
2023/12/29 06:11:27;;;;;;;5.43;0.40;;;;;;;;;;5262866;28;20523;-81
2023/12/29 06:13:59;;;;;;;10.15;0.80;;;;;;;;;;5264199;28;20017;-82
2023/12/29 06:16:30;;;;;;;7.85;0.80;;;;;;;;;;5264232;28;20017;-82
2023/12/29 06:19:01;;;;;;;7.13;0.90;;;;;;;;;;5263509;28;20423;-82
2023/12/29 06:21:32;;;;;;;8.63;0.80;;;;;;;;;;5264058;28;20415;-82
2023/12/29 06:24:04;;;;;;;5.32;0.57;;;;;;;;;;5264234;28;20021;-82
2023/12/29 06:26:35;;;;;;;6.63;0.80;;;;;;;;;;5263493;28;20017;-82
2023/12/29 06:29:06;;;;;;;5.43;0.40;;;;;;;;;;5263523;28;20049;-82
2023/12/29 06:31:41;;;;;;;5.25;0.60;;;;;;;;;;5264309;28;20096;-83
2023/12/29 06:34:13;;;;;;;6.22;0.82;;;;;;;;;;5263677;28;20104;-82
2023/12/29 06:36:44;;;;;;;4.63;0.70;;;;;;;;;;5263762;28;20096;-82
2023/12/29 06:39:15;;;;;;;4.25;0.40;;;;;;;;;;5262413;28;20054;-82
2023/12/29 06:41:46;;;;;;;5.93;0.88;;;;;;;;;;5263433;28;20495;-82
2023/12/29 06:44:17;;;;;;;4.70;0.47;;;;;;;;;;5263234;28;20029;-82
2023/12/29 06:46:49;;;;;;;7.40;0.90;;;;;;;;;;5262721;28;20410;-83
2023/12/29 06:49:20;;;;;;;5.57;0.50;;;;;;;;;;5263177;28;20060;-83
2023/12/29 06:51:51;;;;;;;4.70;0.68;;;;;;;;;;5263596;28;20503;-82
2023/12/29 06:54:22;;;;;;;8.65;0.50;;;;;;;;;;5262553;28;20070;-83
2023/12/29 06:56:54;;;;;;;9.30;0.65;;;;;;;;;;5264064;28;20100;-82
2023/12/29 06:59:25;;;;;;;4.93;0.50;;;;;;;;;;5263035;28;20017;-81
2023/12/29 07:01:56;;;;;;;5.90;0.40;;;;;;;;;;5261772;28;20017;-82
2023/12/29 07:04:27;;;;;;;6.78;0.63;;;;;;;;;;5262643;28;20025;-82
2023/12/29 07:07:00;;;;;;;6.60;0.40;;;;;;;;;;5262062;28;20112;-82
2023/12/29 07:09:31;;;;;;;5.10;0.60;;;;;;;;;;5262803;28;20025;-82
2023/12/29 07:12:02;;;;;;;4.88;0.35;;;;;;;;;;5262733;28;20472;-81
2023/12/29 07:14:35;;;;;;;5.10;0.50;;;;;;;;;;5262586;28;20024;-82
2023/12/29 07:17:06;;;;;;;5.70;0.40;;;;;;;;;;5263152;28;20021;-81
2023/12/29 07:19:37;;;;;;;5.45;0.60;;;;;;;;;;5262804;28;20452;-82
2023/12/29 07:22:09;;;;;;;4.40;0.43;;;;;;;;;;5262153;28;20096;-81
2023/12/29 07:24:40;;;;;;;6.28;0.90;;;;;;;;;;5262876;28;20071;-82
2023/12/29 07:27:12;;;;;;;5.88;0.85;;;;;;;;;;5262620;28;20536;-81
2023/12/29 07:29:43;;;;;;;3.03;0.30;;;;;;;;;;5261873;28;20111;-81
2023/12/29 07:32:14;;;;;;;4.45;0.60;;;;;;;;;;5262947;28;20514;-81
2023/12/29 07:34:45;;;;;;;3.45;0.40;;;;;;;;;;5262575;28;20101;-82
2023/12/29 07:37:16;;;;;;;4.38;0.40;;;;;;;;;;5261949;28;20021;-81
2023/12/29 07:39:48;;;;;;;4.05;0.32;;;;;;;;;;5262237;28;20365;-81
2023/12/29 07:42:19;;;;;;;4.60;0.55;;;;;;;;;;5261990;28;20028;-82
2023/12/29 07:44:51;;;;;;;2.92;0.30;;;;;;;;;;5262361;28;20099;-81
2023/12/29 07:47:22;;;;;;;5.47;0.50;;;;;;;;;;5261760;28;20017;-82
2023/12/29 07:49:53;;;;;;;2.95;0.30;;;;;;;;;;5261788;28;20025;-82
2023/12/29 07:52:25;;;;;;;3.13;0.40;;;;;;;;;;5262063;28;20024;-82
2023/12/29 07:54:56;;;;;;;2.22;0.22;;;;;;;;;;5262362;28;20091;-82
2023/12/29 07:57:27;;;;;;;3.70;0.47;;;;;;;;;;5261286;28;20421;-81
2023/12/29 07:59:58;;;;;;;3.80;0.55;;;;;;;;;;5261945;28;20021;-82
2023/12/29 08:02:29;;;;;;;6.13;0.32;;;;;;;;;;5261914;28;20029;-82
2023/12/29 08:05:02;;;;;;;3.22;0.50;;;;;;;;;;5261442;28;20076;-82
2023/12/29 08:07:33;;;;;;;4.68;0.40;;;;;;;;;;5261793;28;20471;-82
2023/12/29 08:10:05;;;;;;;3.30;0.30;;;;;;;;;;5261243;28;20029;-82
2023/12/29 08:12:36;;;;;;;2.70;0.20;;;;;;;;;;5260753;28;20044;-81
2023/12/29 08:15:07;;;;;;;4.10;0.43;;;;;;;;;;5261152;28;20100;-81
2023/12/29 08:17:39;;;;;;;3.83;0.30;;;;;;;;;;5261079;28;20013;-82
2023/12/29 08:20:10;;;;;;;3.53;0.20;;;;;;;;;;5261947;28;20419;-76
2023/12/29 08:22:41;;;;;;;3.10;0.30;;;;;;;;;;5261430;28;20028;-81
2023/12/29 08:25:13;;;;;;;1.90;0.20;;;;;;;;;;5260559;28;20037;-82
2023/12/29 08:27:44;;;;;;;3.47;0.30;;;;;;;;;;5261682;28;20052;-81
2023/12/29 08:30:16;;;;;;;3.05;0.30;;;;;;;;;;5261108;28;20512;-81
2023/12/29 08:32:47;;;;;;;2.60;0.30;;;;;;;;;;5260797;28;20021;-82
2023/12/29 08:35:18;;;;;;;1.23;0.15;;;;;;;;;;5261331;28;20021;-80
2023/12/29 08:37:49;;;;;;;1.65;0.20;;;;;;;;;;5261303;28;20024;-81
2023/12/29 08:40:20;;;;;;;1.52;0.22;;;;;;;;;;5260456;28;20372;-81
2023/12/29 08:42:52;;;;;;;1.45;0.20;;;;;;;;;;5261800;28;20027;-80
2023/12/29 08:45:24;;;;;;;2.03;0.20;;;;;;;;;;5259941;28;20021;-80
2023/12/29 08:47:55;;;;;;;1.65;0.22;;;;;;;;;;5266617;28;20024;-80
2023/12/29 08:50:26;;;;;;;2.38;0.20;;;;;;;;;;5266370;28;20025;-77
2023/12/29 08:52:57;;;;;;;1.38;0.10;;;;;;;;;;5260597;28;20406;-82
2023/12/29 08:55:29;;;;;;;3.72;0.30;;;;;;;;;;5261081;28;20028;-81
2023/12/29 08:58:00;;;;;;;1.27;0.20;;;;;;;;;;5260823;28;20024;-81
2023/12/29 09:00:32;;;;;;;2.55;0.20;;;;;;;;;;5260322;28;20024;-81
2023/12/29 09:03:03;;;;;;;3.80;0.40;;;;;;;;;;5261038;28;20097;-81
2023/12/29 09:05:35;;;;;;;1.85;0.20;;;;;;;;;;5260978;28;20044;-81
2023/12/29 09:08:06;;;;;;;2.05;0.20;;;;;;;;;;5260274;28;20044;-80
2023/12/29 09:10:38;;;;;;;1.83;0.13;;;;;;;;;;5260859;28;20021;-79
2023/12/29 09:13:09;;;;;;;2.05;0.10;;;;;;;;;;5260519;28;20016;-81
2023/12/29 09:15:40;;;;;;;3.65;1.02;;;;;;;;;;5259826;28;20504;-81
2023/12/29 09:18:12;;;;;;;2.17;0.22;;;;;;;;;;5261189;28;20421;-81
2023/12/29 09:20:43;;;;;;;1.70;0.13;;;;;;;;;;5260372;28;20037;-80
2023/12/29 09:23:14;;;;;;;1.38;0.10;;;;;;;;;;5260731;28;20083;-81
2023/12/29 09:25:45;;;;;;;1.38;0.10;;;;;;;;;;5260204;28;20115;-80
2023/12/29 09:28:16;;;;;;;1.00;0.10;;;;;;;;;;5259592;28;20056;-80
2023/12/29 09:30:48;;;;;;;1.23;0.10;;;;;;;;;;5261119;28;20021;-81
2023/12/29 09:33:19;;;;;;;2.05;0.10;;;;;;;;;;5260928;28;20059;-80
2023/12/29 09:35:50;;;;;;;2.10;0.43;;;;;;;;;;5259784;28;20025;-81
2023/12/29 09:38:22;;;;;;;2.25;0.20;;;;;;;;;;5260291;28;20025;-81
2023/12/29 09:40:53;;;;;;;0.52;0.10;;;;;;;;;;5260591;28;20025;-80
2023/12/29 09:43:25;;;;;;;0.52;0.10;;;;;;;;;;5259109;28;20017;-81
2023/12/29 09:45:58;;;;;;;1.00;0.10;;;;;;;;;;5260794;28;20021;-80
2023/12/29 09:48:31;;;;;;;0.80;0.10;;;;;;;;;;5260533;28;20021;-81
2023/12/29 09:51:06;;;;;;;0.70;0.10;;;;;;;;;;5259580;28;20016;-80
2023/12/29 09:53:39;;;;;;;0.75;0.10;;;;;;;;;;5260607;28;20033;-81
2023/12/29 09:56:11;;;;;;;1.10;0.10;;;;;;;;;;5260045;28;20401;-81
2023/12/29 09:58:43;;;;;;;0.57;0.10;;;;;;;;;;5260729;28;20060;-80
2023/12/29 10:01:14;;;;;;;1.30;0.10;;;;;;;;;;5260419;28;20096;-80
2023/12/29 10:03:46;;;;;;;0.47;0.10;;;;;;;;;;5259741;28;20017;-81
2023/12/29 10:06:20;;;;;;;0.68;0.10;;;;;;;;;;5259934;28;20017;-80
2023/12/29 10:08:53;;;;;;;1.42;0.10;;;;;;;;;;5260163;28;20438;-81
2023/12/29 10:11:24;;;;;;;0.60;0.00;;;;;;;;;;5259251;28;20021;-80
2023/12/29 10:13:58;;;;;;;1.60;0.20;;;;;;;;;;5260281;28;20473;-81
2023/12/29 10:16:35;;;;;;;0.50;0.10;;;;;;;;;;5260243;28;20021;-81
2023/12/29 10:19:22;;;;;;;1.38;0.30;;;;;;;;;;5259262;28;20017;-81
2023/12/29 10:21:56;;;;;;;0.73;0.03;;;;;;;;;;5260405;28;20029;-81
2023/12/29 10:24:27;;;;;;;1.40;0.10;;;;;;;;;;5258961;28;20025;-82
2023/12/29 10:26:58;;;;;;;0.90;0.10;;;;;;;;;;5259856;28;20021;-82
2023/12/29 10:29:31;;;;;;;1.30;0.10;;;;;;;;;;5259770;28;20392;-74
2023/12/29 10:32:02;;;;;;;1.00;0.10;;;;;;;;;;5259016;28;20028;-76
2023/12/29 10:34:33;;;;;;;1.63;0.13;;;;;;;;;;5259746;28;20021;-78
2023/12/29 10:37:13;;;;;;;2.47;0.20;;;;;;;;;;5261257;28;20028;-79
2023/12/29 10:39:54;;;;;;;1.42;0.10;;;;;;;;;;5262530;28;20079;-78
2023/12/29 10:42:26;;;;;;;1.00;0.10;;;;;;;;;;5263254;28;20021;-78
2023/12/29 10:45:04;;;;;;;1.65;0.20;;;;;;;;;;5264345;28;20115;-79
2023/12/29 10:47:36;;;;;;;2.53;0.20;;;;;;;;;;5266065;28;20031;-78
2023/12/29 10:50:07;;;;;;;1.90;0.17;;;;;;;;;;5263403;28;20380;-78
2023/12/29 10:52:40;;;;;;;1.92;0.15;;;;;;;;;;5262467;28;20038;-79
2023/12/29 10:55:12;;;;;;;2.13;0.30;;;;;;;;;;5263112;28;20018;-79
2023/12/29 10:57:43;;;;;;;2.80;0.30;;;;;;;;;;5263067;28;20464;-78
2023/12/29 11:00:16;;;;;;;2.65;0.20;;;;;;;;;;5262883;28;20055;-79
2023/12/29 11:02:53;;;;;;;1.58;0.20;;;;;;;;;;5263422;28;20472;-79
2023/12/29 11:05:25;;;;;;;2.28;0.20;;;;;;;;;;5262782;28;20017;-78
2023/12/29 11:07:58;;;;;;;3.05;0.30;;;;;;;;;;5262877;28;20482;-79
2023/12/29 11:10:30;;;;;;;3.45;0.50;;;;;;;;;;5263306;28;20491;-79
2023/12/29 11:13:01;;;;;;;1.80;0.30;;;;;;;;;;5262592;28;20021;-79
2023/12/29 11:15:33;;;;;;;3.25;0.40;;;;;;;;;;5262963;28;20031;-78
2023/12/29 11:18:05;;;;;;;5.95;0.63;;;;;;;;;;5262918;28;20468;-78
2023/12/29 11:20:37;;;;;;;2.42;0.30;;;;;;;;;;5262251;28;20025;-78
2023/12/29 11:23:09;;;;;;;1.55;0.30;;;;;;;;;;5263083;28;20047;-78
2023/12/29 11:25:40;;;;;;;6.05;0.65;;;;;;;;;;5262895;28;20025;-78
2023/12/29 11:28:12;;;;;;;3.13;0.43;;;;;;;;;;5261574;28;20053;-78
2023/12/29 11:30:43;;;;;;;2.35;0.30;;;;;;;;;;5262832;28;20021;-79
2023/12/29 11:33:20;;;;;;;2.28;0.28;;;;;;;;;;5262262;28;20025;-76
2023/12/29 11:35:57;;;;;;;3.25;0.30;;;;;;;;;;5262003;28;20024;-76
2023/12/29 11:38:44;;;;;;;3.22;0.30;;;;;;;;;;5262844;28;20585;-78
2023/12/29 11:41:25;;;;;;;3.17;0.40;;;;;;;;;;5261606;28;20013;-76
2023/12/29 11:43:59;;;;;;;3.20;0.30;;;;;;;;;;5262759;28;20057;-79
2023/12/29 11:46:37;;;;;;;2.35;0.13;;;;;;;;;;5262112;28;20013;-80
2023/12/29 11:49:08;;;;;;;1.60;0.17;;;;;;;;;;5260821;28;20186;-78
2023/12/29 11:51:43;;;;;;;2.80;0.40;;;;;;;;;;5262144;28;20092;-77
2023/12/29 11:54:27;;;;;;;2.83;0.30;;;;;;;;;;5262584;28;20021;-79
2023/12/29 11:56:58;;;;;;;1.70;0.28;;;;;;;;;;5261717;28;20053;-80
2023/12/29 11:59:29;;;;;;;3.13;0.20;;;;;;;;;;5262153;28;20056;-79
2023/12/29 12:02:00;;;;;;;2.80;0.30;;;;;;;;;;5261937;28;20033;-78
2023/12/29 12:04:41;;;;;;;1.33;0.35;;;;;;;;;;5261634;28;20327;-79
2023/12/29 12:07:15;;;;;;;1.15;0.13;;;;;;;;;;5262207;28;20025;-79
2023/12/29 12:09:49;;;;;;;1.02;0.20;;;;;;;;;;5261664;28;20349;-82
2023/12/29 12:12:40;;;;;;;1.27;0.30;;;;;;;;;;5261960;28;20024;-78
2023/12/29 12:15:26;;;;;;;3.05;0.40;;;;;;;;;;5261875;28;20344;-79
2023/12/29 12:17:58;;;;;;;1.80;0.30;;;;;;;;;;5260942;28;20024;-78
2023/12/29 12:20:30;;;;;;;1.00;0.20;;;;;;;;;;5261892;28;20009;-78
2023/12/29 12:23:01;;;;;;;0.80;0.20;;;;;;;;;;5254619;28;20035;-78
2023/12/29 12:25:34;;;;;;;0.73;0.20;;;;;;;;;;5250911;28;20020;-78
2023/12/29 12:28:06;;;;;;;2.92;0.20;;;;;;;;;;5258843;28;20025;-78
2023/12/29 12:30:38;;;;;;;1.02;0.20;;;;;;;;;;5259578;28;20008;-77
2023/12/29 12:33:13;;;;;;;1.27;0.20;;;;;;;;;;5259774;28;20043;-76
2023/12/29 12:35:46;;;;;;;2.35;0.28;;;;;;;;;;5260280;28;20063;-77
2023/12/29 12:38:21;;;;;;;1.27;0.20;;;;;;;;;;5259574;28;20469;-77
2023/12/29 12:40:53;;;;;;;2.30;0.20;;;;;;;;;;5251575;28;20024;-76
2023/12/29 12:43:26;;;;;;;1.17;0.20;;;;;;;;;;5259957;28;20100;-77
2023/12/29 12:46:00;;;;;;;1.77;0.40;;;;;;;;;;5260467;28;20090;-77
2023/12/29 12:48:35;;;;;;;2.22;0.30;;;;;;;;;;5259772;28;20029;-79
2023/12/29 12:51:07;;;;;;;2.90;0.30;;;;;;;;;;5259223;28;20041;-78
2023/12/29 12:53:44;;;;;;;1.15;0.25;;;;;;;;;;5259916;28;20047;-79
2023/12/29 12:56:16;;;;;;;0.95;0.20;;;;;;;;;;5260913;28;20021;-79
2023/12/29 12:58:47;;;;;;;1.30;0.63;;;;;;;;;;5260008;28;20094;-78
2023/12/29 13:01:19;;;;;;;0.82;0.10;;;;;;;;;;5260192;28;20465;-77
2023/12/29 13:03:51;;;;;;;0.60;0.15;;;;;;;;;;5258970;28;20016;-78
2023/12/29 13:06:22;;;;;;;1.48;0.30;;;;;;;;;;5258492;28;20053;-77
2023/12/29 13:08:53;;;;;;;0.50;0.20;;;;;;;;;;5260221;28;20049;-77
2023/12/29 13:11:25;;;;;;;1.58;0.20;;;;;;;;;;5259805;28;20029;-76
2023/12/29 13:13:57;;;;;;;2.20;0.17;;;;;;;;;;5260060;28;20491;-76
2023/12/29 13:16:35;;;;;;;1.10;0.22;;;;;;;;;;5260778;28;20039;-76
2023/12/29 13:19:23;;;;;;;0.85;0.20;;;;;;;;;;5260353;28;20047;-77
2023/12/29 13:21:55;;;;;;;0.75;0.20;;;;;;;;;;5260347;28;20036;-76
2023/12/29 13:24:26;;;;;;;1.83;0.47;;;;;;;;;;5260007;28;20055;-75
2023/12/29 13:27:01;;;;;;;1.00;0.43;;;;;;;;;;5259985;28;20589;-77
2023/12/29 13:29:36;;;;;;;1.58;0.40;;;;;;;;;;5259852;28;20045;-76
2023/12/29 13:32:13;;;;;;;2.80;0.30;;;;;;;;;;5259874;28;20045;-77
2023/12/29 13:35:03;;;;;;;2.13;0.40;;;;;;;;;;5259060;28;20460;-76
2023/12/29 13:37:45;;;;;;;2.22;0.30;;;;;;;;;;5260162;28;20021;-76
2023/12/29 13:40:22;;;;;;;3.70;0.50;;;;;;;;;;5259399;28;20016;-77
2023/12/29 13:42:55;;;;;;;5.13;0.40;;;;;;;;;;5260270;28;20021;-73
2023/12/29 13:45:26;;;;;;;4.03;0.40;;;;;;;;;;5260331;28;20031;-78
2023/12/29 13:47:59;;;;;;;3.78;0.40;;;;;;;;;;5259672;28;20021;-76
2023/12/29 13:50:30;;;;;;;4.40;0.50;;;;;;;;;;5260483;28;20028;-78
2023/12/29 13:53:01;;;;;;;3.45;0.40;;;;;;;;;;5260774;28;20407;-77
2023/12/29 13:55:32;;;;;;;5.40;0.45;;;;;;;;;;5259746;28;20029;-77
2023/12/29 13:58:08;;;;;;;3.78;0.40;;;;;;;;;;5260520;28;20052;-78
2023/12/29 14:00:40;;;;;;;2.78;0.40;;;;;;;;;;5260705;28;20025;-78
2023/12/29 14:03:34;;;;;;;3.25;0.30;;;;;;;;;;5256095;28;20387;-76
2023/12/29 14:06:08;;;;;;;2.20;0.30;;;;;;;;;;5256379;28;20033;-77
2023/12/29 14:08:39;;;;;;;1.70;0.20;;;;;;;;;;5260204;28;20029;-77
2023/12/29 14:11:11;;;;;;;4.13;0.50;;;;;;;;;;5259471;28;20017;-78
2023/12/29 14:13:42;;;;;;;2.50;0.38;;;;;;;;;;5264393;28;20096;-78
2023/12/29 14:16:15;;;;;;;1.75;0.28;;;;;;;;;;5263219;28;20021;-77
2023/12/29 14:18:46;;;;;;;1.45;0.20;;;;;;;;;;5263741;28;20090;-77
2023/12/29 14:21:33;;;;;;;2.10;0.20;;;;;;;;;;5264160;28;20025;-78
2023/12/29 14:24:11;;;;;;;1.63;0.20;;;;;;;;;;5262933;28;20028;-77
2023/12/29 14:26:51;;;;;;;0.95;0.20;;;;;;;;;;5264153;28;20035;-78
2023/12/29 14:29:23;;;;;;;2.75;0.20;;;;;;;;;;5263383;28;20053;-78
2023/12/29 14:31:57;;;;;;;1.55;0.20;;;;;;;;;;5262915;28;20024;-78
2023/12/29 14:34:28;;;;;;;1.92;0.20;;;;;;;;;;5264274;28;20375;-76
2023/12/29 14:37:00;;;;;;;3.63;0.30;;;;;;;;;;5264028;28;20013;-78
2023/12/29 14:39:32;;;;;;;2.35;0.40;;;;;;;;;;5263958;28;20021;-76
2023/12/29 14:42:03;;;;;;;2.15;0.17;;;;;;;;;;5263755;28;20059;-77
2023/12/29 14:44:34;;;;;;;2.35;0.20;;;;;;;;;;5262711;28;20025;-76
2023/12/29 14:47:06;;;;;;;2.67;0.30;;;;;;;;;;5261953;28;20024;-75
2023/12/29 14:49:37;;;;;;;1.15;0.20;;;;;;;;;;5262442;28;20029;-75
2023/12/29 14:52:08;;;;;;;1.95;0.30;;;;;;;;;;5262723;28;20021;-76
2023/12/29 14:54:40;;;;;;;3.05;0.40;;;;;;;;;;5263640;28;20025;-77
2023/12/29 14:57:12;;;;;;;1.60;0.20;;;;;;;;;;5263278;28;20015;-76
2023/12/29 14:59:43;;;;;;;1.77;0.30;;;;;;;;;;5262698;28;20021;-76
2023/12/29 15:02:14;;;;;;;1.45;0.50;;;;;;;;;;5263362;28;20030;-76
2023/12/29 15:04:46;;;;;;;1.52;0.20;;;;;;;;;;5263193;28;20049;-76
2023/12/29 15:07:18;;;;;;;1.48;0.20;;;;;;;;;;5262287;28;20488;-76
2023/12/29 15:09:49;;;;;;;0.70;0.10;;;;;;;;;;5263920;28;20464;-79
2023/12/29 15:12:20;;;;;;;0.88;0.40;;;;;;;;;;5262370;28;20044;-77
2023/12/29 15:14:51;;;;;;;1.30;0.10;;;;;;;;;;5263308;28;20029;-77